sensor_id;sensor_type;location;lat;lon;timestamp;P1;durP1;ratioP1;P2;durP2;ratioP2
49320;SDS011;35817;44.498;0.166;2022-12-04T00:01:49;27.23;;;15.15;;
49320;SDS011;35817;44.498;0.166;2022-12-04T00:04:14;28.45;;;16.73;;
49320;SDS011;35817;44.498;0.166;2022-12-04T00:06:40;25.08;;;16.70;;
49320;SDS011;35817;44.498;0.166;2022-12-04T00:09:06;24.85;;;15.80;;
49320;SDS011;35817;44.498;0.166;2022-12-04T00:11:32;25.38;;;15.75;;
49320;SDS011;35817;44.498;0.166;2022-12-04T00:13:59;28.30;;;15.45;;
49320;SDS011;35817;44.498;0.166;2022-12-04T00:16:26;21.17;;;12.18;;
49320;SDS011;35817;44.498;0.166;2022-12-04T00:18:55;20.90;;;13.32;;
49320;SDS011;35817;44.498;0.166;2022-12-04T00:21:22;23.67;;;12.93;;
49320;SDS011;35817;44.498;0.166;2022-12-04T00:23:49;19.15;;;11.98;;
49320;SDS011;35817;44.498;0.166;2022-12-04T00:26:19;24.30;;;12.88;;
49320;SDS011;35817;44.498;0.166;2022-12-04T00:28:47;24.67;;;12.90;;
49320;SDS011;35817;44.498;0.166;2022-12-04T00:31:14;21.98;;;14.38;;
49320;SDS011;35817;44.498;0.166;2022-12-04T00:33:42;23.08;;;11.73;;
49320;SDS011;35817;44.498;0.166;2022-12-04T00:36:09;22.63;;;13.00;;
49320;SDS011;35817;44.498;0.166;2022-12-04T00:38:36;24.08;;;14.25;;
49320;SDS011;35817;44.498;0.166;2022-12-04T00:41:02;20.75;;;14.30;;
49320;SDS011;35817;44.498;0.166;2022-12-04T00:43:29;20.80;;;14.68;;
49320;SDS011;35817;44.498;0.166;2022-12-04T00:45:56;21.65;;;13.13;;
49320;SDS011;35817;44.498;0.166;2022-12-04T00:48:21;19.30;;;11.98;;
49320;SDS011;35817;44.498;0.166;2022-12-04T00:50:47;23.20;;;13.82;;
49320;SDS011;35817;44.498;0.166;2022-12-04T00:53:13;21.02;;;14.88;;
49320;SDS011;35817;44.498;0.166;2022-12-04T00:55:41;27.08;;;15.50;;
49320;SDS011;35817;44.498;0.166;2022-12-04T00:58:07;26.85;;;14.68;;
49320;SDS011;35817;44.498;0.166;2022-12-04T01:00:34;26.80;;;14.70;;
49320;SDS011;35817;44.498;0.166;2022-12-04T01:03:00;20.95;;;15.70;;
49320;SDS011;35817;44.498;0.166;2022-12-04T01:05:26;22.10;;;14.77;;
49320;SDS011;35817;44.498;0.166;2022-12-04T01:07:52;25.25;;;17.38;;
49320;SDS011;35817;44.498;0.166;2022-12-04T01:10:18;22.50;;;15.68;;
49320;SDS011;35817;44.498;0.166;2022-12-04T01:12:44;24.55;;;16.52;;
49320;SDS011;35817;44.498;0.166;2022-12-04T01:15:13;25.13;;;16.65;;
49320;SDS011;35817;44.498;0.166;2022-12-04T01:17:38;25.63;;;15.32;;
49320;SDS011;35817;44.498;0.166;2022-12-04T01:20:04;24.15;;;16.63;;
49320;SDS011;35817;44.498;0.166;2022-12-04T01:22:30;23.15;;;14.73;;
49320;SDS011;35817;44.498;0.166;2022-12-04T01:24:56;29.10;;;17.95;;
49320;SDS011;35817;44.498;0.166;2022-12-04T01:27:22;24.90;;;15.63;;
49320;SDS011;35817;44.498;0.166;2022-12-04T01:29:48;32.03;;;18.45;;
49320;SDS011;35817;44.498;0.166;2022-12-04T01:32:14;25.05;;;14.35;;
49320;SDS011;35817;44.498;0.166;2022-12-04T01:34:40;27.23;;;15.02;;
49320;SDS011;35817;44.498;0.166;2022-12-04T01:37:05;25.27;;;15.48;;
49320;SDS011;35817;44.498;0.166;2022-12-04T01:39:34;21.95;;;14.80;;
49320;SDS011;35817;44.498;0.166;2022-12-04T01:42:00;30.53;;;17.17;;
49320;SDS011;35817;44.498;0.166;2022-12-04T01:44:28;29.30;;;15.23;;
49320;SDS011;35817;44.498;0.166;2022-12-04T01:46:58;39.42;;;18.88;;
49320;SDS011;35817;44.498;0.166;2022-12-04T01:49:28;27.98;;;18.17;;
49320;SDS011;35817;44.498;0.166;2022-12-04T01:54:40;26.48;;;16.35;;
49320;SDS011;35817;44.498;0.166;2022-12-04T01:57:13;31.25;;;17.65;;
49320;SDS011;35817;44.498;0.166;2022-12-04T01:59:42;27.63;;;16.65;;
49320;SDS011;35817;44.498;0.166;2022-12-04T02:02:15;23.27;;;14.90;;
49320;SDS011;35817;44.498;0.166;2022-12-04T02:04:45;24.08;;;15.38;;
49320;SDS011;35817;44.498;0.166;2022-12-04T02:07:11;24.65;;;15.35;;
49320;SDS011;35817;44.498;0.166;2022-12-04T02:09:37;23.92;;;14.90;;
49320;SDS011;35817;44.498;0.166;2022-12-04T02:17:10;21.90;;;16.40;;
49320;SDS011;35817;44.498;0.166;2022-12-04T02:25:23;25.40;;;16.02;;
49320;SDS011;35817;44.498;0.166;2022-12-04T02:30:46;20.05;;;16.33;;
49320;SDS011;35817;44.498;0.166;2022-12-04T02:33:17;30.70;;;18.40;;
49320;SDS011;35817;44.498;0.166;2022-12-04T02:35:49;24.25;;;17.17;;
49320;SDS011;35817;44.498;0.166;2022-12-04T02:38:32;25.08;;;14.60;;
49320;SDS011;35817;44.498;0.166;2022-12-04T02:41:07;23.08;;;14.98;;
49320;SDS011;35817;44.498;0.166;2022-12-04T02:43:47;25.75;;;17.77;;
49320;SDS011;35817;44.498;0.166;2022-12-04T02:46:22;27.33;;;18.42;;
49320;SDS011;35817;44.498;0.166;2022-12-04T02:48:59;26.77;;;18.13;;
49320;SDS011;35817;44.498;0.166;2022-12-04T02:51:29;25.27;;;17.48;;
49320;SDS011;35817;44.498;0.166;2022-12-04T02:53:59;28.23;;;16.92;;
49320;SDS011;35817;44.498;0.166;2022-12-04T02:56:31;21.33;;;15.43;;
49320;SDS011;35817;44.498;0.166;2022-12-04T02:59:03;23.23;;;15.93;;
49320;SDS011;35817;44.498;0.166;2022-12-04T03:01:38;22.05;;;13.82;;
49320;SDS011;35817;44.498;0.166;2022-12-04T03:06:43;25.30;;;15.63;;
49320;SDS011;35817;44.498;0.166;2022-12-04T03:11:46;24.83;;;15.65;;
49320;SDS011;35817;44.498;0.166;2022-12-04T03:14:18;26.30;;;15.32;;
49320;SDS011;35817;44.498;0.166;2022-12-04T03:16:49;28.23;;;15.45;;
49320;SDS011;35817;44.498;0.166;2022-12-04T03:19:18;20.83;;;14.07;;
49320;SDS011;35817;44.498;0.166;2022-12-04T03:21:50;25.40;;;15.15;;
49320;SDS011;35817;44.498;0.166;2022-12-04T03:24:21;26.25;;;15.75;;
49320;SDS011;35817;44.498;0.166;2022-12-04T03:29:31;21.02;;;13.48;;
49320;SDS011;35817;44.498;0.166;2022-12-04T03:37:13;15.38;;;11.07;;
49320;SDS011;35817;44.498;0.166;2022-12-04T03:39:57;20.65;;;13.73;;
49320;SDS011;35817;44.498;0.166;2022-12-04T03:42:48;25.50;;;17.17;;
49320;SDS011;35817;44.498;0.166;2022-12-04T03:45:30;22.20;;;15.85;;
49320;SDS011;35817;44.498;0.166;2022-12-04T03:50:59;28.13;;;16.42;;
49320;SDS011;35817;44.498;0.166;2022-12-04T03:53:53;23.27;;;15.85;;
49320;SDS011;35817;44.498;0.166;2022-12-04T03:56:34;26.02;;;18.08;;
49320;SDS011;35817;44.498;0.166;2022-12-04T03:59:06;26.52;;;18.38;;
49320;SDS011;35817;44.498;0.166;2022-12-04T04:01:44;30.98;;;19.52;;
49320;SDS011;35817;44.498;0.166;2022-12-04T04:04:14;25.20;;;15.43;;
49320;SDS011;35817;44.498;0.166;2022-12-04T04:06:47;29.38;;;16.65;;
49320;SDS011;35817;44.498;0.166;2022-12-04T04:09:21;26.30;;;15.40;;
49320;SDS011;35817;44.498;0.166;2022-12-04T04:14:31;28.70;;;16.85;;
49320;SDS011;35817;44.498;0.166;2022-12-04T04:17:21;27.83;;;18.48;;
49320;SDS011;35817;44.498;0.166;2022-12-04T04:20:18;28.75;;;17.15;;
49320;SDS011;35817;44.498;0.166;2022-12-04T04:23:06;23.52;;;17.73;;
49320;SDS011;35817;44.498;0.166;2022-12-04T04:25:53;28.02;;;18.08;;
49320;SDS011;35817;44.498;0.166;2022-12-04T04:28:30;23.33;;;14.40;;
49320;SDS011;35817;44.498;0.166;2022-12-04T04:31:03;30.77;;;16.98;;
49320;SDS011;35817;44.498;0.166;2022-12-04T04:33:35;18.67;;;15.30;;
49320;SDS011;35817;44.498;0.166;2022-12-04T04:36:13;28.67;;;17.27;;
49320;SDS011;35817;44.498;0.166;2022-12-04T04:38:42;26.05;;;15.80;;
49320;SDS011;35817;44.498;0.166;2022-12-04T04:41:18;22.60;;;15.65;;
49320;SDS011;35817;44.498;0.166;2022-12-04T04:43:59;24.52;;;16.88;;
49320;SDS011;35817;44.498;0.166;2022-12-04T04:46:30;29.13;;;16.73;;
49320;SDS011;35817;44.498;0.166;2022-12-04T04:49:03;27.20;;;18.95;;
49320;SDS011;35817;44.498;0.166;2022-12-04T04:51:32;22.92;;;14.70;;
49320;SDS011;35817;44.498;0.166;2022-12-04T04:54:00;19.92;;;13.68;;
49320;SDS011;35817;44.498;0.166;2022-12-04T04:56:29;22.92;;;16.63;;
49320;SDS011;35817;44.498;0.166;2022-12-04T04:58:55;24.52;;;17.45;;
49320;SDS011;35817;44.498;0.166;2022-12-04T05:01:21;35.67;;;19.90;;
49320;SDS011;35817;44.498;0.166;2022-12-04T05:03:50;29.52;;;20.48;;
49320;SDS011;35817;44.498;0.166;2022-12-04T05:06:16;18.63;;;13.65;;
49320;SDS011;35817;44.498;0.166;2022-12-04T05:08:42;21.88;;;14.45;;
49320;SDS011;35817;44.498;0.166;2022-12-04T05:11:12;22.15;;;15.90;;
49320;SDS011;35817;44.498;0.166;2022-12-04T05:13:39;22.88;;;14.98;;
49320;SDS011;35817;44.498;0.166;2022-12-04T05:16:06;17.85;;;12.80;;
49320;SDS011;35817;44.498;0.166;2022-12-04T05:18:35;21.00;;;13.20;;
49320;SDS011;35817;44.498;0.166;2022-12-04T05:21:04;23.88;;;12.93;;
49320;SDS011;35817;44.498;0.166;2022-12-04T05:23:31;25.52;;;13.60;;
49320;SDS011;35817;44.498;0.166;2022-12-04T05:25:58;19.75;;;13.25;;
49320;SDS011;35817;44.498;0.166;2022-12-04T05:28:27;20.50;;;12.90;;
49320;SDS011;35817;44.498;0.166;2022-12-04T05:30:57;24.20;;;16.58;;
49320;SDS011;35817;44.498;0.166;2022-12-04T05:33:24;18.30;;;11.93;;
49320;SDS011;35817;44.498;0.166;2022-12-04T05:36:03;22.50;;;12.30;;
49320;SDS011;35817;44.498;0.166;2022-12-04T05:38:30;24.17;;;12.82;;
49320;SDS011;35817;44.498;0.166;2022-12-04T05:40:57;20.73;;;11.93;;
49320;SDS011;35817;44.498;0.166;2022-12-04T05:43:23;18.98;;;12.52;;
49320;SDS011;35817;44.498;0.166;2022-12-04T05:45:49;21.13;;;16.33;;
49320;SDS011;35817;44.498;0.166;2022-12-04T05:48:14;23.27;;;15.27;;
49320;SDS011;35817;44.498;0.166;2022-12-04T05:50:40;22.02;;;14.98;;
49320;SDS011;35817;44.498;0.166;2022-12-04T05:53:05;20.38;;;13.45;;
49320;SDS011;35817;44.498;0.166;2022-12-04T05:55:31;22.77;;;11.88;;
49320;SDS011;35817;44.498;0.166;2022-12-04T05:57:57;19.58;;;12.68;;
49320;SDS011;35817;44.498;0.166;2022-12-04T06:00:22;22.25;;;12.65;;
49320;SDS011;35817;44.498;0.166;2022-12-04T06:02:48;21.95;;;13.30;;
49320;SDS011;35817;44.498;0.166;2022-12-04T06:05:14;21.95;;;12.07;;
49320;SDS011;35817;44.498;0.166;2022-12-04T06:07:39;22.73;;;11.90;;
49320;SDS011;35817;44.498;0.166;2022-12-04T06:10:05;18.02;;;11.18;;
49320;SDS011;35817;44.498;0.166;2022-12-04T06:12:31;20.55;;;12.60;;
49320;SDS011;35817;44.498;0.166;2022-12-04T06:14:57;19.25;;;12.82;;
49320;SDS011;35817;44.498;0.166;2022-12-04T06:17:23;25.67;;;14.63;;
49320;SDS011;35817;44.498;0.166;2022-12-04T06:19:49;25.13;;;13.38;;
49320;SDS011;35817;44.498;0.166;2022-12-04T06:22:17;19.98;;;12.88;;
49320;SDS011;35817;44.498;0.166;2022-12-04T06:24:43;20.27;;;11.63;;
49320;SDS011;35817;44.498;0.166;2022-12-04T06:27:09;25.15;;;15.80;;
49320;SDS011;35817;44.498;0.166;2022-12-04T06:29:35;17.20;;;11.10;;
49320;SDS011;35817;44.498;0.166;2022-12-04T06:32:01;16.00;;;11.88;;
49320;SDS011;35817;44.498;0.166;2022-12-04T06:34:27;23.38;;;14.20;;
49320;SDS011;35817;44.498;0.166;2022-12-04T06:36:53;15.80;;;11.20;;
49320;SDS011;35817;44.498;0.166;2022-12-04T06:39:19;21.42;;;14.20;;
49320;SDS011;35817;44.498;0.166;2022-12-04T06:41:45;23.65;;;17.10;;
49320;SDS011;35817;44.498;0.166;2022-12-04T06:44:12;30.00;;;19.50;;
49320;SDS011;35817;44.498;0.166;2022-12-04T06:46:38;23.30;;;17.42;;
49320;SDS011;35817;44.498;0.166;2022-12-04T06:49:04;34.92;;;20.90;;
49320;SDS011;35817;44.498;0.166;2022-12-04T06:51:31;27.30;;;20.20;;
49320;SDS011;35817;44.498;0.166;2022-12-04T06:53:58;27.17;;;18.63;;
49320;SDS011;35817;44.498;0.166;2022-12-04T06:56:25;27.25;;;20.00;;
49320;SDS011;35817;44.498;0.166;2022-12-04T06:58:53;30.27;;;20.98;;
49320;SDS011;35817;44.498;0.166;2022-12-04T07:01:21;28.15;;;20.48;;
49320;SDS011;35817;44.498;0.166;2022-12-04T07:03:48;28.55;;;19.02;;
49320;SDS011;35817;44.498;0.166;2022-12-04T07:06:16;30.60;;;22.77;;
49320;SDS011;35817;44.498;0.166;2022-12-04T07:08:42;29.45;;;23.52;;
49320;SDS011;35817;44.498;0.166;2022-12-04T07:11:09;53.20;;;34.90;;
49320;SDS011;35817;44.498;0.166;2022-12-04T07:13:35;44.03;;;32.15;;
49320;SDS011;35817;44.498;0.166;2022-12-04T07:16:02;46.40;;;28.50;;
49320;SDS011;35817;44.498;0.166;2022-12-04T07:18:29;46.85;;;27.85;;
49320;SDS011;35817;44.498;0.166;2022-12-04T07:20:56;48.30;;;30.42;;
49320;SDS011;35817;44.498;0.166;2022-12-04T07:23:21;43.60;;;29.80;;
49320;SDS011;35817;44.498;0.166;2022-12-04T07:25:47;39.95;;;29.73;;
49320;SDS011;35817;44.498;0.166;2022-12-04T07:28:13;38.33;;;27.13;;
49320;SDS011;35817;44.498;0.166;2022-12-04T07:30:38;37.78;;;27.40;;
49320;SDS011;35817;44.498;0.166;2022-12-04T07:33:04;34.90;;;26.08;;
49320;SDS011;35817;44.498;0.166;2022-12-04T07:35:30;41.00;;;27.58;;
49320;SDS011;35817;44.498;0.166;2022-12-04T07:37:56;38.38;;;27.60;;
49320;SDS011;35817;44.498;0.166;2022-12-04T07:40:21;38.35;;;28.98;;
49320;SDS011;35817;44.498;0.166;2022-12-04T07:42:47;39.58;;;27.30;;
49320;SDS011;35817;44.498;0.166;2022-12-04T07:45:13;44.40;;;26.02;;
49320;SDS011;35817;44.498;0.166;2022-12-04T07:47:39;38.80;;;27.35;;
49320;SDS011;35817;44.498;0.166;2022-12-04T07:50:05;38.45;;;27.95;;
49320;SDS011;35817;44.498;0.166;2022-12-04T07:52:35;39.13;;;27.52;;
49320;SDS011;35817;44.498;0.166;2022-12-04T07:55:02;35.70;;;26.50;;
49320;SDS011;35817;44.498;0.166;2022-12-04T07:57:31;38.30;;;24.65;;
49320;SDS011;35817;44.498;0.166;2022-12-04T07:59:57;33.20;;;26.55;;
49320;SDS011;35817;44.498;0.166;2022-12-04T08:02:24;35.65;;;26.08;;
49320;SDS011;35817;44.498;0.166;2022-12-04T08:04:50;27.98;;;19.60;;
49320;SDS011;35817;44.498;0.166;2022-12-04T08:07:16;33.92;;;23.17;;
49320;SDS011;35817;44.498;0.166;2022-12-04T08:09:42;26.38;;;15.95;;
49320;SDS011;35817;44.498;0.166;2022-12-04T08:12:07;27.42;;;20.92;;
49320;SDS011;35817;44.498;0.166;2022-12-04T08:14:33;18.88;;;14.18;;
49320;SDS011;35817;44.498;0.166;2022-12-04T08:16:59;17.48;;;12.45;;
49320;SDS011;35817;44.498;0.166;2022-12-04T08:19:25;22.02;;;16.10;;
49320;SDS011;35817;44.498;0.166;2022-12-04T08:21:52;27.30;;;14.50;;
49320;SDS011;35817;44.498;0.166;2022-12-04T08:24:18;17.83;;;12.88;;
49320;SDS011;35817;44.498;0.166;2022-12-04T08:26:44;23.80;;;18.55;;
49320;SDS011;35817;44.498;0.166;2022-12-04T08:29:10;20.80;;;13.77;;
49320;SDS011;35817;44.498;0.166;2022-12-04T08:31:36;25.98;;;12.77;;
49320;SDS011;35817;44.498;0.166;2022-12-04T08:34:03;42.47;;;19.50;;
49320;SDS011;35817;44.498;0.166;2022-12-04T08:36:30;25.33;;;14.88;;
49320;SDS011;35817;44.498;0.166;2022-12-04T08:38:56;46.20;;;16.52;;
49320;SDS011;35817;44.498;0.166;2022-12-04T08:41:22;19.33;;;13.00;;
49320;SDS011;35817;44.498;0.166;2022-12-04T08:43:50;27.17;;;13.25;;
49320;SDS011;35817;44.498;0.166;2022-12-04T08:46:20;24.13;;;12.90;;
49320;SDS011;35817;44.498;0.166;2022-12-04T08:48:46;27.90;;;11.13;;
49320;SDS011;35817;44.498;0.166;2022-12-04T08:51:13;16.45;;;11.15;;
49320;SDS011;35817;44.498;0.166;2022-12-04T08:53:40;22.80;;;13.57;;
49320;SDS011;35817;44.498;0.166;2022-12-04T08:56:06;20.63;;;12.23;;
49320;SDS011;35817;44.498;0.166;2022-12-04T08:58:32;18.75;;;10.93;;
49320;SDS011;35817;44.498;0.166;2022-12-04T09:01:03;18.52;;;11.73;;
49320;SDS011;35817;44.498;0.166;2022-12-04T09:03:30;17.35;;;11.98;;
49320;SDS011;35817;44.498;0.166;2022-12-04T09:05:57;19.35;;;11.73;;
49320;SDS011;35817;44.498;0.166;2022-12-04T09:08:24;20.88;;;9.43;;
49320;SDS011;35817;44.498;0.166;2022-12-04T09:10:49;14.80;;;9.85;;
49320;SDS011;35817;44.498;0.166;2022-12-04T09:13:15;14.73;;;10.20;;
49320;SDS011;35817;44.498;0.166;2022-12-04T09:15:41;20.27;;;10.85;;
49320;SDS011;35817;44.498;0.166;2022-12-04T09:18:07;16.45;;;9.93;;
49320;SDS011;35817;44.498;0.166;2022-12-04T09:20:33;15.27;;;11.48;;
49320;SDS011;35817;44.498;0.166;2022-12-04T09:23:00;14.05;;;10.25;;
49320;SDS011;35817;44.498;0.166;2022-12-04T09:25:26;14.88;;;9.18;;
49320;SDS011;35817;44.498;0.166;2022-12-04T09:27:52;17.38;;;10.50;;
49320;SDS011;35817;44.498;0.166;2022-12-04T09:30:17;21.60;;;11.90;;
49320;SDS011;35817;44.498;0.166;2022-12-04T09:32:43;33.40;;;13.82;;
49320;SDS011;35817;44.498;0.166;2022-12-04T09:35:09;13.63;;;10.80;;
49320;SDS011;35817;44.498;0.166;2022-12-04T09:37:34;17.33;;;11.05;;
49320;SDS011;35817;44.498;0.166;2022-12-04T09:40:04;20.98;;;11.60;;
49320;SDS011;35817;44.498;0.166;2022-12-04T09:45:16;18.90;;;11.38;;
49320;SDS011;35817;44.498;0.166;2022-12-04T09:47:45;28.02;;;15.20;;
49320;SDS011;35817;44.498;0.166;2022-12-04T10:01:21;22.65;;;12.45;;
49320;SDS011;35817;44.498;0.166;2022-12-04T10:04:06;30.08;;;13.00;;
49320;SDS011;35817;44.498;0.166;2022-12-04T10:06:37;32.10;;;16.00;;
49320;SDS011;35817;44.498;0.166;2022-12-04T10:09:20;19.10;;;12.75;;
49320;SDS011;35817;44.498;0.166;2022-12-04T10:17:21;24.50;;;13.80;;
49320;SDS011;35817;44.498;0.166;2022-12-04T10:19:56;17.02;;;10.80;;
49320;SDS011;35817;44.498;0.166;2022-12-04T10:22:42;24.33;;;14.40;;
49320;SDS011;35817;44.498;0.166;2022-12-04T10:25:15;28.17;;;15.55;;
49320;SDS011;35817;44.498;0.166;2022-12-04T10:27:51;28.20;;;12.77;;
49320;SDS011;35817;44.498;0.166;2022-12-04T10:30:38;19.17;;;12.35;;
49320;SDS011;35817;44.498;0.166;2022-12-04T10:33:15;20.27;;;11.32;;
49320;SDS011;35817;44.498;0.166;2022-12-04T10:35:53;17.38;;;11.15;;
49320;SDS011;35817;44.498;0.166;2022-12-04T10:43:46;19.52;;;12.15;;
49320;SDS011;35817;44.498;0.166;2022-12-04T10:46:23;21.63;;;13.50;;
49320;SDS011;35817;44.498;0.166;2022-12-04T10:48:53;22.67;;;14.18;;
49320;SDS011;35817;44.498;0.166;2022-12-04T10:51:24;22.80;;;14.75;;
49320;SDS011;35817;44.498;0.166;2022-12-04T10:53:50;26.25;;;13.65;;
49320;SDS011;35817;44.498;0.166;2022-12-04T10:56:18;29.00;;;13.63;;
49320;SDS011;35817;44.498;0.166;2022-12-04T10:58:58;23.73;;;14.02;;
49320;SDS011;35817;44.498;0.166;2022-12-04T11:01:30;23.20;;;13.90;;
49320;SDS011;35817;44.498;0.166;2022-12-04T11:06:26;21.10;;;12.68;;
49320;SDS011;35817;44.498;0.166;2022-12-04T11:08:53;23.73;;;15.30;;
49320;SDS011;35817;44.498;0.166;2022-12-04T11:11:25;21.70;;;13.32;;
49320;SDS011;35817;44.498;0.166;2022-12-04T11:14:04;22.10;;;14.23;;
49320;SDS011;35817;44.498;0.166;2022-12-04T11:16:42;20.95;;;13.13;;
49320;SDS011;35817;44.498;0.166;2022-12-04T11:19:20;21.67;;;13.50;;
49320;SDS011;35817;44.498;0.166;2022-12-04T11:21:57;24.23;;;15.57;;
49320;SDS011;35817;44.498;0.166;2022-12-04T11:24:32;23.25;;;15.00;;
49320;SDS011;35817;44.498;0.166;2022-12-04T11:27:00;29.88;;;18.10;;
49320;SDS011;35817;44.498;0.166;2022-12-04T11:29:35;34.92;;;20.75;;
49320;SDS011;35817;44.498;0.166;2022-12-04T11:32:05;21.00;;;15.48;;
49320;SDS011;35817;44.498;0.166;2022-12-04T11:34:39;24.40;;;14.75;;
49320;SDS011;35817;44.498;0.166;2022-12-04T11:37:05;22.02;;;15.05;;
49320;SDS011;35817;44.498;0.166;2022-12-04T11:39:43;25.38;;;15.80;;
49320;SDS011;35817;44.498;0.166;2022-12-04T11:42:17;19.08;;;12.32;;
49320;SDS011;35817;44.498;0.166;2022-12-04T11:45:03;24.33;;;14.27;;
49320;SDS011;35817;44.498;0.166;2022-12-04T11:47:57;25.13;;;17.30;;
49320;SDS011;35817;44.498;0.166;2022-12-04T11:50:32;23.15;;;15.82;;
49320;SDS011;35817;44.498;0.166;2022-12-04T11:55:51;25.95;;;15.35;;
49320;SDS011;35817;44.498;0.166;2022-12-04T12:01:19;29.48;;;19.20;;
49320;SDS011;35817;44.498;0.166;2022-12-04T12:03:55;24.27;;;17.63;;
49320;SDS011;35817;44.498;0.166;2022-12-04T12:14:33;16.98;;;13.93;;
49320;SDS011;35817;44.498;0.166;2022-12-04T12:17:13;18.17;;;12.73;;
49320;SDS011;35817;44.498;0.166;2022-12-04T12:22:39;15.95;;;11.30;;
49320;SDS011;35817;44.498;0.166;2022-12-04T12:25:26;20.15;;;13.10;;
49320;SDS011;35817;44.498;0.166;2022-12-04T12:28:11;17.98;;;13.57;;
49320;SDS011;35817;44.498;0.166;2022-12-04T12:33:20;15.77;;;13.65;;
49320;SDS011;35817;44.498;0.166;2022-12-04T12:38:21;16.83;;;12.20;;
49320;SDS011;35817;44.498;0.166;2022-12-04T12:41:04;20.00;;;15.48;;
49320;SDS011;35817;44.498;0.166;2022-12-04T12:43:36;15.63;;;12.10;;
49320;SDS011;35817;44.498;0.166;2022-12-04T12:46:05;17.38;;;14.38;;
49320;SDS011;35817;44.498;0.166;2022-12-04T12:51:38;15.43;;;11.60;;
49320;SDS011;35817;44.498;0.166;2022-12-04T12:54:13;16.30;;;12.90;;
49320;SDS011;35817;44.498;0.166;2022-12-04T12:56:49;14.50;;;11.88;;
49320;SDS011;35817;44.498;0.166;2022-12-04T12:59:20;17.33;;;10.95;;
49320;SDS011;35817;44.498;0.166;2022-12-04T13:01:51;11.57;;;9.75;;
49320;SDS011;35817;44.498;0.166;2022-12-04T13:04:21;11.23;;;9.93;;
49320;SDS011;35817;44.498;0.166;2022-12-04T13:06:50;12.93;;;10.52;;
49320;SDS011;35817;44.498;0.166;2022-12-04T13:09:31;12.43;;;10.77;;
49320;SDS011;35817;44.498;0.166;2022-12-04T13:12:00;14.73;;;10.20;;
49320;SDS011;35817;44.498;0.166;2022-12-04T13:14:30;11.13;;;9.90;;
49320;SDS011;35817;44.498;0.166;2022-12-04T13:17:00;11.15;;;9.90;;
49320;SDS011;35817;44.498;0.166;2022-12-04T13:19:36;11.23;;;8.23;;
49320;SDS011;35817;44.498;0.166;2022-12-04T13:22:20;11.73;;;9.40;;
49320;SDS011;35817;44.498;0.166;2022-12-04T13:30:30;11.27;;;8.77;;
49320;SDS011;35817;44.498;0.166;2022-12-04T13:33:11;9.38;;;8.35;;
49320;SDS011;35817;44.498;0.166;2022-12-04T13:38:42;12.48;;;7.95;;
49320;SDS011;35817;44.498;0.166;2022-12-04T13:41:17;10.05;;;8.57;;
49320;SDS011;35817;44.498;0.166;2022-12-04T13:56:36;7.03;;;6.18;;
49320;SDS011;35817;44.498;0.166;2022-12-04T13:59:04;7.82;;;6.20;;
49320;SDS011;35817;44.498;0.166;2022-12-04T14:01:44;8.32;;;6.10;;
49320;SDS011;35817;44.498;0.166;2022-12-04T14:04:22;9.93;;;6.43;;
49320;SDS011;35817;44.498;0.166;2022-12-04T14:06:52;9.32;;;6.25;;
49320;SDS011;35817;44.498;0.166;2022-12-04T14:09:24;12.35;;;6.70;;
49320;SDS011;35817;44.498;0.166;2022-12-04T14:12:01;10.18;;;6.85;;
49320;SDS011;35817;44.498;0.166;2022-12-04T14:14:37;8.98;;;6.80;;
49320;SDS011;35817;44.498;0.166;2022-12-04T14:17:21;10.93;;;7.35;;
49320;SDS011;35817;44.498;0.166;2022-12-04T14:19:51;9.25;;;6.10;;
49320;SDS011;35817;44.498;0.166;2022-12-04T14:25:03;5.88;;;4.10;;
49320;SDS011;35817;44.498;0.166;2022-12-04T14:27:52;8.63;;;5.93;;
49320;SDS011;35817;44.498;0.166;2022-12-04T14:32:49;10.23;;;6.18;;
49320;SDS011;35817;44.498;0.166;2022-12-04T14:35:20;7.25;;;5.10;;
49320;SDS011;35817;44.498;0.166;2022-12-04T14:37:54;8.17;;;5.70;;
49320;SDS011;35817;44.498;0.166;2022-12-04T14:40:32;8.48;;;5.43;;
49320;SDS011;35817;44.498;0.166;2022-12-04T14:43:06;8.52;;;5.72;;
49320;SDS011;35817;44.498;0.166;2022-12-04T14:48:39;17.65;;;11.23;;
49320;SDS011;35817;44.498;0.166;2022-12-04T14:59:20;10.40;;;6.53;;
49320;SDS011;35817;44.498;0.166;2022-12-04T15:01:49;7.38;;;4.63;;
49320;SDS011;35817;44.498;0.166;2022-12-04T15:04:25;7.63;;;4.47;;
49320;SDS011;35817;44.498;0.166;2022-12-04T15:06:54;8.38;;;4.75;;
49320;SDS011;35817;44.498;0.166;2022-12-04T15:09:22;5.60;;;3.58;;
49320;SDS011;35817;44.498;0.166;2022-12-04T15:12:18;5.55;;;4.43;;
49320;SDS011;35817;44.498;0.166;2022-12-04T15:15:12;6.70;;;4.32;;
49320;SDS011;35817;44.498;0.166;2022-12-04T15:17:38;4.85;;;3.17;;
49320;SDS011;35817;44.498;0.166;2022-12-04T15:20:15;4.32;;;2.08;;
49320;SDS011;35817;44.498;0.166;2022-12-04T15:22:42;4.22;;;2.90;;
49320;SDS011;35817;44.498;0.166;2022-12-04T15:25:18;5.57;;;4.00;;
49320;SDS011;35817;44.498;0.166;2022-12-04T15:27:47;7.53;;;4.32;;
49320;SDS011;35817;44.498;0.166;2022-12-04T15:30:16;5.22;;;3.67;;
49320;SDS011;35817;44.498;0.166;2022-12-04T15:32:45;4.90;;;3.00;;
49320;SDS011;35817;44.498;0.166;2022-12-04T15:35:17;4.10;;;2.78;;
49320;SDS011;35817;44.498;0.166;2022-12-04T15:37:48;9.43;;;4.30;;
49320;SDS011;35817;44.498;0.166;2022-12-04T15:40:18;6.60;;;3.88;;
49320;SDS011;35817;44.498;0.166;2022-12-04T15:42:48;5.25;;;3.20;;
49320;SDS011;35817;44.498;0.166;2022-12-04T15:55:48;8.95;;;4.60;;
49320;SDS011;35817;44.498;0.166;2022-12-04T15:58:36;5.07;;;3.40;;
49320;SDS011;35817;44.498;0.166;2022-12-04T16:01:07;6.70;;;4.20;;
49320;SDS011;35817;44.498;0.166;2022-12-04T16:06:30;7.53;;;3.65;;
49320;SDS011;35817;44.498;0.166;2022-12-04T16:11:57;7.28;;;4.60;;
49320;SDS011;35817;44.498;0.166;2022-12-04T16:14:40;5.80;;;4.05;;
49320;SDS011;35817;44.498;0.166;2022-12-04T16:17:07;8.48;;;5.88;;
49320;SDS011;35817;44.498;0.166;2022-12-04T16:19:36;6.20;;;4.40;;
49320;SDS011;35817;44.498;0.166;2022-12-04T16:22:08;6.85;;;4.13;;
49320;SDS011;35817;44.498;0.166;2022-12-04T16:24:38;6.85;;;3.95;;
49320;SDS011;35817;44.498;0.166;2022-12-04T16:27:11;7.30;;;4.38;;
49320;SDS011;35817;44.498;0.166;2022-12-04T16:29:38;5.00;;;3.25;;
49320;SDS011;35817;44.498;0.166;2022-12-04T16:32:04;5.60;;;3.10;;
49320;SDS011;35817;44.498;0.166;2022-12-04T16:34:30;4.78;;;2.60;;
49320;SDS011;35817;44.498;0.166;2022-12-04T16:36:56;10.25;;;6.10;;
49320;SDS011;35817;44.498;0.166;2022-12-04T16:39:22;12.57;;;7.63;;
49320;SDS011;35817;44.498;0.166;2022-12-04T16:41:48;14.45;;;6.50;;
49320;SDS011;35817;44.498;0.166;2022-12-04T16:44:14;9.20;;;5.78;;
49320;SDS011;35817;44.498;0.166;2022-12-04T16:46:41;7.40;;;5.13;;
49320;SDS011;35817;44.498;0.166;2022-12-04T16:49:09;7.10;;;5.65;;
49320;SDS011;35817;44.498;0.166;2022-12-04T16:51:36;12.95;;;7.38;;
49320;SDS011;35817;44.498;0.166;2022-12-04T16:54:10;14.38;;;8.77;;
49320;SDS011;35817;44.498;0.166;2022-12-04T16:56:36;13.55;;;10.65;;
49320;SDS011;35817;44.498;0.166;2022-12-04T16:59:02;13.40;;;8.02;;
49320;SDS011;35817;44.498;0.166;2022-12-04T17:01:31;11.02;;;7.10;;
49320;SDS011;35817;44.498;0.166;2022-12-04T17:04:00;10.57;;;6.80;;
49320;SDS011;35817;44.498;0.166;2022-12-04T17:06:25;9.50;;;5.63;;